sensor_id;sensor_type;location;lat;lon;timestamp;temperature;humidity
5786;DHT22;2919;48.630;9.000;2022-10-26T00:02:08;10.80;99.90
5786;DHT22;2919;48.630;9.000;2022-10-26T00:04:34;10.80;99.90
5786;DHT22;2919;48.630;9.000;2022-10-26T00:06:59;10.80;99.90
5786;DHT22;2919;48.630;9.000;2022-10-26T00:09:25;10.80;99.90
5786;DHT22;2919;48.630;9.000;2022-10-26T00:11:51;10.70;99.90
5786;DHT22;2919;48.630;9.000;2022-10-26T00:14:17;10.70;99.90
5786;DHT22;2919;48.630;9.000;2022-10-26T00:16:42;10.70;99.90
5786;DHT22;2919;48.630;9.000;2022-10-26T00:19:08;10.80;99.90
5786;DHT22;2919;48.630;9.000;2022-10-26T00:21:33;10.80;99.90
5786;DHT22;2919;48.630;9.000;2022-10-26T00:23:59;10.90;99.90
5786;DHT22;2919;48.630;9.000;2022-10-26T00:26:25;10.90;99.90
5786;DHT22;2919;48.630;9.000;2022-10-26T00:28:54;10.90;99.90
5786;DHT22;2919;48.630;9.000;2022-10-26T00:31:21;10.90;99.90
5786;DHT22;2919;48.630;9.000;2022-10-26T00:33:46;10.90;99.90
5786;DHT22;2919;48.630;9.000;2022-10-26T00:36:12;10.90;99.90
5786;DHT22;2919;48.630;9.000;2022-10-26T00:38:40;10.90;99.90
5786;DHT22;2919;48.630;9.000;2022-10-26T00:41:24;11.00;99.90
5786;DHT22;2919;48.630;9.000;2022-10-26T00:43:50;10.90;99.90
5786;DHT22;2919;48.630;9.000;2022-10-26T00:48:52;10.90;99.90
5786;DHT22;2919;48.630;9.000;2022-10-26T00:51:29;11.00;99.90
5786;DHT22;2919;48.630;9.000;2022-10-26T00:54:02;11.00;99.90
5786;DHT22;2919;48.630;9.000;2022-10-26T00:56:29;11.00;99.90
5786;DHT22;2919;48.630;9.000;2022-10-26T00:58:59;11.10;99.90
5786;DHT22;2919;48.630;9.000;2022-10-26T01:01:27;11.20;99.90
5786;DHT22;2919;48.630;9.000;2022-10-26T01:03:53;11.20;99.90
5786;DHT22;2919;48.630;9.000;2022-10-26T01:06:20;11.20;99.90
5786;DHT22;2919;48.630;9.000;2022-10-26T01:08:46;11.30;99.90
5786;DHT22;2919;48.630;9.000;2022-10-26T01:11:13;11.30;99.90
5786;DHT22;2919;48.630;9.000;2022-10-26T01:13:39;11.30;99.90
5786;DHT22;2919;48.630;9.000;2022-10-26T01:32:26;11.40;99.90
5786;DHT22;2919;48.630;9.000;2022-10-26T01:35:28;11.40;99.90
5786;DHT22;2919;48.630;9.000;2022-10-26T01:38:21;11.30;99.90
5786;DHT22;2919;48.630;9.000;2022-10-26T01:40:57;11.40;99.90
5786;DHT22;2919;48.630;9.000;2022-10-26T01:43:25;11.40;99.90
5786;DHT22;2919;48.630;9.000;2022-10-26T01:45:54;11.40;99.90
5786;DHT22;2919;48.630;9.000;2022-10-26T01:48:21;11.40;99.90
5786;DHT22;2919;48.630;9.000;2022-10-26T01:50:51;11.40;99.90
5786;DHT22;2919;48.630;9.000;2022-10-26T01:53:18;11.40;99.90
5786;DHT22;2919;48.630;9.000;2022-10-26T01:55:51;11.40;99.90
5786;DHT22;2919;48.630;9.000;2022-10-26T02:07:10;11.20;99.90
5786;DHT22;2919;48.630;9.000;2022-10-26T02:10:15;11.20;99.90
5786;DHT22;2919;48.630;9.000;2022-10-26T02:12:52;11.10;99.90
5786;DHT22;2919;48.630;9.000;2022-10-26T02:15:28;11.10;99.90
5786;DHT22;2919;48.630;9.000;2022-10-26T02:17:58;11.10;99.90
5786;DHT22;2919;48.630;9.000;2022-10-26T02:20:29;11.10;99.90
5786;DHT22;2919;48.630;9.000;2022-10-26T02:22:58;11.10;99.90
5786;DHT22;2919;48.630;9.000;2022-10-26T02:25:28;11.10;99.90
5786;DHT22;2919;48.630;9.000;2022-10-26T02:27:59;11.10;99.90
5786;DHT22;2919;48.630;9.000;2022-10-26T02:30:27;11.10;99.90
5786;DHT22;2919;48.630;9.000;2022-10-26T02:32:55;11.10;99.90
5786;DHT22;2919;48.630;9.000;2022-10-26T02:35:26;11.10;99.90
5786;DHT22;2919;48.630;9.000;2022-10-26T02:37:54;11.10;99.90
5786;DHT22;2919;48.630;9.000;2022-10-26T02:40:24;11.10;99.90
5786;DHT22;2919;48.630;9.000;2022-10-26T02:42:51;11.10;99.90
5786;DHT22;2919;48.630;9.000;2022-10-26T02:45:24;11.20;99.90
5786;DHT22;2919;48.630;9.000;2022-10-26T02:47:50;11.10;99.90
5786;DHT22;2919;48.630;9.000;2022-10-26T02:50:18;11.00;99.90
5786;DHT22;2919;48.630;9.000;2022-10-26T02:52:56;11.10;99.90
5786;DHT22;2919;48.630;9.000;2022-10-26T02:55:27;11.00;99.90
5786;DHT22;2919;48.630;9.000;2022-10-26T02:57:58;11.10;99.90
5786;DHT22;2919;48.630;9.000;2022-10-26T03:00:25;11.10;99.90
5786;DHT22;2919;48.630;9.000;2022-10-26T03:02:58;11.20;99.90
5786;DHT22;2919;48.630;9.000;2022-10-26T03:05:26;11.20;99.90
5786;DHT22;2919;48.630;9.000;2022-10-26T03:07:54;11.30;99.90
5786;DHT22;2919;48.630;9.000;2022-10-26T03:10:20;11.30;99.90
5786;DHT22;2919;48.630;9.000;2022-10-26T03:12:46;11.30;99.90
5786;DHT22;2919;48.630;9.000;2022-10-26T03:15:11;11.40;99.90
5786;DHT22;2919;48.630;9.000;2022-10-26T03:17:37;11.50;99.90
5786;DHT22;2919;48.630;9.000;2022-10-26T03:20:03;11.60;99.90
5786;DHT22;2919;48.630;9.000;2022-10-26T03:22:29;11.70;99.90
5786;DHT22;2919;48.630;9.000;2022-10-26T03:24:55;11.80;99.90
5786;DHT22;2919;48.630;9.000;2022-10-26T03:27:20;11.90;99.90
5786;DHT22;2919;48.630;9.000;2022-10-26T03:29:46;12.00;99.90
5786;DHT22;2919;48.630;9.000;2022-10-26T03:32:12;12.10;99.90
5786;DHT22;2919;48.630;9.000;2022-10-26T03:34:37;12.10;99.90
5786;DHT22;2919;48.630;9.000;2022-10-26T03:37:03;12.20;99.90
5786;DHT22;2919;48.630;9.000;2022-10-26T03:39:28;12.30;99.90
5786;DHT22;2919;48.630;9.000;2022-10-26T03:41:54;12.30;99.90
5786;DHT22;2919;48.630;9.000;2022-10-26T03:44:20;12.40;99.90
5786;DHT22;2919;48.630;9.000;2022-10-26T03:46:46;12.50;99.90
5786;DHT22;2919;48.630;9.000;2022-10-26T03:49:11;12.50;99.90
5786;DHT22;2919;48.630;9.000;2022-10-26T03:51:37;12.60;99.90
5786;DHT22;2919;48.630;9.000;2022-10-26T03:54:03;12.50;99.90
5786;DHT22;2919;48.630;9.000;2022-10-26T03:56:29;12.60;99.90
5786;DHT22;2919;48.630;9.000;2022-10-26T03:58:54;12.60;99.90
5786;DHT22;2919;48.630;9.000;2022-10-26T04:01:20;12.60;99.90
5786;DHT22;2919;48.630;9.000;2022-10-26T04:03:45;12.60;99.90
5786;DHT22;2919;48.630;9.000;2022-10-26T04:06:11;12.60;99.90
5786;DHT22;2919;48.630;9.000;2022-10-26T04:08:37;12.60;99.90
5786;DHT22;2919;48.630;9.000;2022-10-26T04:11:02;12.50;99.90
5786;DHT22;2919;48.630;9.000;2022-10-26T04:13:28;12.50;99.90
5786;DHT22;2919;48.630;9.000;2022-10-26T04:15:53;12.40;99.90
5786;DHT22;2919;48.630;9.000;2022-10-26T04:18:19;12.40;99.90
5786;DHT22;2919;48.630;9.000;2022-10-26T04:20:45;12.40;99.90
5786;DHT22;2919;48.630;9.000;2022-10-26T04:23:12;12.40;99.90
5786;DHT22;2919;48.630;9.000;2022-10-26T04:25:38;12.30;99.90
5786;DHT22;2919;48.630;9.000;2022-10-26T04:28:05;12.30;99.90
5786;DHT22;2919;48.630;9.000;2022-10-26T04:30:32;12.30;99.90
5786;DHT22;2919;48.630;9.000;2022-10-26T04:32:58;12.20;99.90
5786;DHT22;2919;48.630;9.000;2022-10-26T04:35:24;12.20;99.90
5786;DHT22;2919;48.630;9.000;2022-10-26T04:37:49;12.10;99.90
5786;DHT22;2919;48.630;9.000;2022-10-26T04:40:15;12.20;99.90
5786;DHT22;2919;48.630;9.000;2022-10-26T04:42:45;12.20;99.90
5786;DHT22;2919;48.630;9.000;2022-10-26T04:45:12;12.20;99.90
5786;DHT22;2919;48.630;9.000;2022-10-26T04:47:39;12.20;99.90
5786;DHT22;2919;48.630;9.000;2022-10-26T04:50:06;12.20;99.90
5786;DHT22;2919;48.630;9.000;2022-10-26T04:52:32;12.20;99.90
5786;DHT22;2919;48.630;9.000;2022-10-26T04:54:58;12.30;99.90
5786;DHT22;2919;48.630;9.000;2022-10-26T04:57:23;12.30;99.90
5786;DHT22;2919;48.630;9.000;2022-10-26T04:59:49;12.20;99.90
5786;DHT22;2919;48.630;9.000;2022-10-26T05:02:14;12.20;99.90
5786;DHT22;2919;48.630;9.000;2022-10-26T05:04:40;12.20;99.90
5786;DHT22;2919;48.630;9.000;2022-10-26T05:07:05;12.20;99.90
5786;DHT22;2919;48.630;9.000;2022-10-26T05:09:31;12.20;99.90
5786;DHT22;2919;48.630;9.000;2022-10-26T05:11:57;12.20;99.90
5786;DHT22;2919;48.630;9.000;2022-10-26T05:14:22;12.20;99.90
5786;DHT22;2919;48.630;9.000;2022-10-26T05:16:49;12.30;99.90
5786;DHT22;2919;48.630;9.000;2022-10-26T05:19:15;12.30;99.90
5786;DHT22;2919;48.630;9.000;2022-10-26T05:21:41;12.40;99.90
5786;DHT22;2919;48.630;9.000;2022-10-26T05:24:07;12.40;99.90
5786;DHT22;2919;48.630;9.000;2022-10-26T05:26:32;12.40;99.90
5786;DHT22;2919;48.630;9.000;2022-10-26T05:28:58;12.50;99.90
5786;DHT22;2919;48.630;9.000;2022-10-26T05:31:24;12.50;99.90
5786;DHT22;2919;48.630;9.000;2022-10-26T05:33:50;12.40;99.90
5786;DHT22;2919;48.630;9.000;2022-10-26T05:36:19;12.40;99.90
5786;DHT22;2919;48.630;9.000;2022-10-26T05:38:44;12.50;99.90
5786;DHT22;2919;48.630;9.000;2022-10-26T05:41:10;12.50;99.90
5786;DHT22;2919;48.630;9.000;2022-10-26T05:43:36;12.50;99.90
5786;DHT22;2919;48.630;9.000;2022-10-26T05:46:02;12.50;99.90
5786;DHT22;2919;48.630;9.000;2022-10-26T05:48:27;12.50;99.90
5786;DHT22;2919;48.630;9.000;2022-10-26T05:50:53;12.50;99.90
5786;DHT22;2919;48.630;9.000;2022-10-26T05:53:18;12.60;99.90
5786;DHT22;2919;48.630;9.000;2022-10-26T05:55:44;12.60;99.90
5786;DHT22;2919;48.630;9.000;2022-10-26T05:58:11;12.70;99.90
5786;DHT22;2919;48.630;9.000;2022-10-26T06:05:58;12.80;99.90
5786;DHT22;2919;48.630;9.000;2022-10-26T06:08:26;12.80;99.90
5786;DHT22;2919;48.630;9.000;2022-10-26T06:10:54;12.80;99.90
5786;DHT22;2919;48.630;9.000;2022-10-26T06:13:20;12.90;99.90
5786;DHT22;2919;48.630;9.000;2022-10-26T06:18:32;12.90;99.90
5786;DHT22;2919;48.630;9.000;2022-10-26T06:23:43;13.00;99.90
5786;DHT22;2919;48.630;9.000;2022-10-26T06:31:43;13.00;99.90
5786;DHT22;2919;48.630;9.000;2022-10-26T06:34:10;13.00;99.90
5786;DHT22;2919;48.630;9.000;2022-10-26T06:36:38;13.00;99.90
5786;DHT22;2919;48.630;9.000;2022-10-26T06:39:09;13.10;99.90
5786;DHT22;2919;48.630;9.000;2022-10-26T06:41:37;13.10;99.90
5786;DHT22;2919;48.630;9.000;2022-10-26T06:44:03;13.00;99.90
5786;DHT22;2919;48.630;9.000;2022-10-26T06:51:57;13.10;99.90
5786;DHT22;2919;48.630;9.000;2022-10-26T06:57:03;13.10;99.90
5786;DHT22;2919;48.630;9.000;2022-10-26T06:59:46;13.10;99.90
5786;DHT22;2919;48.630;9.000;2022-10-26T07:02:13;13.10;99.90
5786;DHT22;2919;48.630;9.000;2022-10-26T07:04:43;13.10;99.90
5786;DHT22;2919;48.630;9.000;2022-10-26T07:07:13;13.10;99.90
5786;DHT22;2919;48.630;9.000;2022-10-26T07:09:39;13.10;99.90
5786;DHT22;2919;48.630;9.000;2022-10-26T07:12:05;13.10;99.90
5786;DHT22;2919;48.630;9.000;2022-10-26T07:14:31;13.10;99.90
5786;DHT22;2919;48.630;9.000;2022-10-26T07:16:57;13.20;99.90
5786;DHT22;2919;48.630;9.000;2022-10-26T07:19:23;13.20;99.90
5786;DHT22;2919;48.630;9.000;2022-10-26T07:21:48;13.20;99.90
5786;DHT22;2919;48.630;9.000;2022-10-26T07:24:14;13.20;99.90
5786;DHT22;2919;48.630;9.000;2022-10-26T07:26:39;13.30;99.90
5786;DHT22;2919;48.630;9.000;2022-10-26T07:29:05;13.40;99.90
5786;DHT22;2919;48.630;9.000;2022-10-26T07:31:31;13.40;99.90
5786;DHT22;2919;48.630;9.000;2022-10-26T07:33:57;13.50;99.90
5786;DHT22;2919;48.630;9.000;2022-10-26T07:36:22;13.50;99.90
5786;DHT22;2919;48.630;9.000;2022-10-26T07:38:52;13.60;99.90
5786;DHT22;2919;48.630;9.000;2022-10-26T07:41:18;13.70;99.90
5786;DHT22;2919;48.630;9.000;2022-10-26T07:43:43;13.80;99.90
5786;DHT22;2919;48.630;9.000;2022-10-26T07:46:15;13.90;99.90
5786;DHT22;2919;48.630;9.000;2022-10-26T07:48:41;15.10;99.90
5786;DHT22;2919;48.630;9.000;2022-10-26T07:51:07;14.10;99.90
5786;DHT22;2919;48.630;9.000;2022-10-26T07:53:33;14.20;99.90
5786;DHT22;2919;48.630;9.000;2022-10-26T07:55:58;15.80;99.90
5786;DHT22;2919;48.630;9.000;2022-10-26T07:58:24;14.40;99.90
5786;DHT22;2919;48.630;9.000;2022-10-26T08:00:52;14.40;99.90
5786;DHT22;2919;48.630;9.000;2022-10-26T08:03:18;14.40;99.90
5786;DHT22;2919;48.630;9.000;2022-10-26T08:05:46;14.90;99.90
5786;DHT22;2919;48.630;9.000;2022-10-26T08:08:20;14.50;99.90
5786;DHT22;2919;48.630;9.000;2022-10-26T08:10:46;14.50;99.90
5786;DHT22;2919;48.630;9.000;2022-10-26T08:13:12;14.60;99.90
5786;DHT22;2919;48.630;9.000;2022-10-26T08:15:38;14.50;99.90
5786;DHT22;2919;48.630;9.000;2022-10-26T08:18:04;14.50;99.90
5786;DHT22;2919;48.630;9.000;2022-10-26T08:20:30;14.40;99.90
5786;DHT22;2919;48.630;9.000;2022-10-26T08:22:56;15.90;99.90
5786;DHT22;2919;48.630;9.000;2022-10-26T08:25:22;14.40;99.90
5786;DHT22;2919;48.630;9.000;2022-10-26T08:27:48;14.40;99.90
5786;DHT22;2919;48.630;9.000;2022-10-26T08:30:14;14.40;99.90
5786;DHT22;2919;48.630;9.000;2022-10-26T08:32:39;14.40;99.90
5786;DHT22;2919;48.630;9.000;2022-10-26T08:35:07;14.40;99.90
5786;DHT22;2919;48.630;9.000;2022-10-26T08:37:33;14.40;99.90
5786;DHT22;2919;48.630;9.000;2022-10-26T08:39:59;14.40;99.90
5786;DHT22;2919;48.630;9.000;2022-10-26T08:42:27;14.40;99.90
5786;DHT22;2919;48.630;9.000;2022-10-26T08:44:58;14.60;99.90
5786;DHT22;2919;48.630;9.000;2022-10-26T08:47:28;14.50;99.90
5786;DHT22;2919;48.630;9.000;2022-10-26T08:50:33;14.50;99.90
5786;DHT22;2919;48.630;9.000;2022-10-26T08:55:37;14.60;99.90
5786;DHT22;2919;48.630;9.000;2022-10-26T08:58:06;14.80;99.90
5786;DHT22;2919;48.630;9.000;2022-10-26T09:00:37;15.30;99.90
5786;DHT22;2919;48.630;9.000;2022-10-26T09:03:14;15.20;99.90
5786;DHT22;2919;48.630;9.000;2022-10-26T09:24:28;15.50;99.90
5786;DHT22;2919;48.630;9.000;2022-10-26T09:29:38;15.70;99.90
5786;DHT22;2919;48.630;9.000;2022-10-26T09:32:08;15.80;99.90
5786;DHT22;2919;48.630;9.000;2022-10-26T09:34:42;15.90;99.90
5786;DHT22;2919;48.630;9.000;2022-10-26T09:37:20;16.00;99.90
5786;DHT22;2919;48.630;9.000;2022-10-26T09:42:35;16.20;99.90
5786;DHT22;2919;48.630;9.000;2022-10-26T09:45:29;16.20;99.90
5786;DHT22;2919;48.630;9.000;2022-10-26T09:48:00;16.40;99.90
5786;DHT22;2919;48.630;9.000;2022-10-26T09:50:33;16.80;99.90
5786;DHT22;2919;48.630;9.000;2022-10-26T09:52:59;17.00;99.90
5786;DHT22;2919;48.630;9.000;2022-10-26T09:55:25;17.30;99.90
5786;DHT22;2919;48.630;9.000;2022-10-26T09:57:54;17.40;99.90
5786;DHT22;2919;48.630;9.000;2022-10-26T10:00:22;17.50;99.90
5786;DHT22;2919;48.630;9.000;2022-10-26T10:02:53;17.60;99.90
5786;DHT22;2919;48.630;9.000;2022-10-26T10:08:21;17.90;99.90
5786;DHT22;2919;48.630;9.000;2022-10-26T10:13:24;17.80;99.90
5786;DHT22;2919;48.630;9.000;2022-10-26T10:15:53;17.60;99.90
5786;DHT22;2919;48.630;9.000;2022-10-26T10:18:20;17.40;99.90
5786;DHT22;2919;48.630;9.000;2022-10-26T10:21:05;17.20;99.90
5786;DHT22;2919;48.630;9.000;2022-10-26T10:23:36;17.20;99.90
5786;DHT22;2919;48.630;9.000;2022-10-26T10:26:13;17.20;99.90
5786;DHT22;2919;48.630;9.000;2022-10-26T10:28:40;17.20;99.90
5786;DHT22;2919;48.630;9.000;2022-10-26T10:31:29;17.40;99.90
5786;DHT22;2919;48.630;9.000;2022-10-26T10:33:55;17.40;99.90
5786;DHT22;2919;48.630;9.000;2022-10-26T10:36:23;17.40;99.90
5786;DHT22;2919;48.630;9.000;2022-10-26T10:38:51;17.40;99.90
5786;DHT22;2919;48.630;9.000;2022-10-26T10:41:29;17.60;99.90
5786;DHT22;2919;48.630;9.000;2022-10-26T10:44:16;17.80;99.90
5786;DHT22;2919;48.630;9.000;2022-10-26T10:46:44;18.00;99.90
5786;DHT22;2919;48.630;9.000;2022-10-26T10:49:22;18.20;99.90
5786;DHT22;2919;48.630;9.000;2022-10-26T10:51:49;18.30;99.90
5786;DHT22;2919;48.630;9.000;2022-10-26T10:54:35;18.30;99.90
5786;DHT22;2919;48.630;9.000;2022-10-26T11:00:07;18.60;99.90
5786;DHT22;2919;48.630;9.000;2022-10-26T11:02:41;18.70;99.90
5786;DHT22;2919;48.630;9.000;2022-10-26T11:10:36;18.50;99.90
5786;DHT22;2919;48.630;9.000;2022-10-26T11:13:14;18.40;99.90
5786;DHT22;2919;48.630;9.000;2022-10-26T11:15:41;18.40;99.90
5786;DHT22;2919;48.630;9.000;2022-10-26T11:18:18;18.40;99.90
5786;DHT22;2919;48.630;9.000;2022-10-26T11:20:54;18.50;99.90
5786;DHT22;2919;48.630;9.000;2022-10-26T11:26:19;18.70;99.90
5786;DHT22;2919;48.630;9.000;2022-10-26T11:28:58;18.80;99.90
5786;DHT22;2919;48.630;9.000;2022-10-26T11:31:35;18.80;99.90
5786;DHT22;2919;48.630;9.000;2022-10-26T11:34:14;18.90;99.90
5786;DHT22;2919;48.630;9.000;2022-10-26T11:36:42;18.90;99.90
5786;DHT22;2919;48.630;9.000;2022-10-26T11:39:18;19.00;99.90
5786;DHT22;2919;48.630;9.000;2022-10-26T11:42:17;19.30;99.90
5786;DHT22;2919;48.630;9.000;2022-10-26T11:45:03;19.50;99.90
5786;DHT22;2919;48.630;9.000;2022-10-26T11:47:39;19.50;99.90
5786;DHT22;2919;48.630;9.000;2022-10-26T11:50:16;19.50;99.90
5786;DHT22;2919;48.630;9.000;2022-10-26T11:52:57;19.50;99.90
5786;DHT22;2919;48.630;9.000;2022-10-26T11:55:25;19.60;99.90
5786;DHT22;2919;48.630;9.000;2022-10-26T11:57:54;19.50;99.90
5786;DHT22;2919;48.630;9.000;2022-10-26T12:00:22;19.50;99.90
5786;DHT22;2919;48.630;9.000;2022-10-26T12:02:52;19.50;99.90
5786;DHT22;2919;48.630;9.000;2022-10-26T12:08:08;19.40;99.90
5786;DHT22;2919;48.630;9.000;2022-10-26T12:10:39;19.60;99.90
5786;DHT22;2919;48.630;9.000;2022-10-26T12:16:03;20.00;99.90
5786;DHT22;2919;48.630;9.000;2022-10-26T12:18:42;20.10;99.90
5786;DHT22;2919;48.630;9.000;2022-10-26T12:21:09;20.00;99.90
5786;DHT22;2919;48.630;9.000;2022-10-26T12:31:40;19.70;99.90
5786;DHT22;2919;48.630;9.000;2022-10-26T12:34:15;19.60;99.90
5786;DHT22;2919;48.630;9.000;2022-10-26T12:37:10;19.60;
5786;DHT22;2919;48.630;9.000;2022-10-26T12:39:44;19.40;99.90
5786;DHT22;2919;48.630;9.000;2022-10-26T12:42:26;19.40;99.90
5786;DHT22;2919;48.630;9.000;2022-10-26T12:52:51;19.70;99.90
5786;DHT22;2919;48.630;9.000;2022-10-26T13:09:06;20.50;99.90
5786;DHT22;2919;48.630;9.000;2022-10-26T13:11:34;20.60;99.90
5786;DHT22;2919;48.630;9.000;2022-10-26T13:14:20;20.50;99.90
5786;DHT22;2919;48.630;9.000;2022-10-26T13:16:47;20.50;99.90
5786;DHT22;2919;48.630;9.000;2022-10-26T13:21:58;20.50;99.90
5786;DHT22;2919;48.630;9.000;2022-10-26T13:24:26;20.50;99.90
5786;DHT22;2919;48.630;9.000;2022-10-26T13:30:09;20.50;99.90
5786;DHT22;2919;48.630;9.000;2022-10-26T13:32:19;20.50;99.90
5786;DHT22;2919;48.630;9.000;2022-10-26T13:34:45;20.50;99.90
5786;DHT22;2919;48.630;9.000;2022-10-26T13:37:21;20.50;99.90
5786;DHT22;2919;48.630;9.000;2022-10-26T13:39:49;20.50;99.90
5786;DHT22;2919;48.630;9.000;2022-10-26T13:42:24;20.40;99.90
5786;DHT22;2919;48.630;9.000;2022-10-26T13:45:04;20.50;99.90
5786;DHT22;2919;48.630;9.000;2022-10-26T13:47:49;20.50;99.90
5786;DHT22;2919;48.630;9.000;2022-10-26T13:50:24;20.40;98.70
5786;DHT22;2919;48.630;9.000;2022-10-26T13:53:04;20.40;98.20
5786;DHT22;2919;48.630;9.000;2022-10-26T13:55:57;20.40;98.50
5786;DHT22;2919;48.630;9.000;2022-10-26T13:58:38;20.30;98.40
5786;DHT22;2919;48.630;9.000;2022-10-26T14:01:16;20.30;99.00
5786;DHT22;2919;48.630;9.000;2022-10-26T14:03:43;20.40;98.90
5786;DHT22;2919;48.630;9.000;2022-10-26T14:08:59;20.30;99.50
5786;DHT22;2919;48.630;9.000;2022-10-26T14:11:35;20.30;98.90
5786;DHT22;2919;48.630;9.000;2022-10-26T14:14:04;20.20;99.00
5786;DHT22;2919;48.630;9.000;2022-10-26T14:16:31;20.20;98.90
5786;DHT22;2919;48.630;9.000;2022-10-26T14:18:58;20.10;98.40
5786;DHT22;2919;48.630;9.000;2022-10-26T14:21:23;20.00;98.90
5786;DHT22;2919;48.630;9.000;2022-10-26T14:23:57;20.00;99.30
5786;DHT22;2919;48.630;9.000;2022-10-26T14:26:28;20.00;99.20
5786;DHT22;2919;48.630;9.000;2022-10-26T14:28:59;20.00;99.60
5786;DHT22;2919;48.630;9.000;2022-10-26T14:31:30;20.10;99.30
5786;DHT22;2919;48.630;9.000;2022-10-26T14:33:58;20.00;99.10
5786;DHT22;2919;48.630;9.000;2022-10-26T14:36:41;20.00;98.60
5786;DHT22;2919;48.630;9.000;2022-10-26T14:39:26;19.80;99.20
5786;DHT22;2919;48.630;9.000;2022-10-26T14:41:54;19.80;99.10
5786;DHT22;2919;48.630;9.000;2022-10-26T14:44:22;19.80;99.10
5786;DHT22;2919;48.630;9.000;2022-10-26T14:46:48;19.70;98.80
5786;DHT22;2919;48.630;9.000;2022-10-26T14:49:21;19.70;98.80
5786;DHT22;2919;48.630;9.000;2022-10-26T14:51:48;19.70;99.40
5786;DHT22;2919;48.630;9.000;2022-10-26T14:54:24;19.70;99.10
5786;DHT22;2919;48.630;9.000;2022-10-26T14:56:50;19.60;99.80
5786;DHT22;2919;48.630;9.000;2022-10-26T14:59:27;19.40;99.90
5786;DHT22;2919;48.630;9.000;2022-10-26T15:01:56;19.40;99.90
5786;DHT22;2919;48.630;9.000;2022-10-26T15:04:31;19.40;99.90
5786;DHT22;2919;48.630;9.000;2022-10-26T15:09:44;19.20;99.90
5786;DHT22;2919;48.630;9.000;2022-10-26T15:12:35;19.10;99.90
5786;DHT22;2919;48.630;9.000;2022-10-26T15:17:52;19.00;99.90
5786;DHT22;2919;48.630;9.000;2022-10-26T15:20:24;19.00;99.90
5786;DHT22;2919;48.630;9.000;2022-10-26T15:22:59;18.90;99.90
5786;DHT22;2919;48.630;9.000;2022-10-26T15:25:31;18.70;99.90
5786;DHT22;2919;48.630;9.000;2022-10-26T15:33:32;18.30;99.90
5786;DHT22;2919;48.630;9.000;2022-10-26T15:36:19;18.20;99.90
5786;DHT22;2919;48.630;9.000;2022-10-26T15:38:46;18.10;99.90
5786;DHT22;2919;48.630;9.000;2022-10-26T15:43:53;17.90;99.90
5786;DHT22;2919;48.630;9.000;2022-10-26T15:46:23;17.80;99.90
5786;DHT22;2919;48.630;9.000;2022-10-26T15:48:56;17.70;99.90
5786;DHT22;2919;48.630;9.000;2022-10-26T15:51:23;17.50;99.90
5786;DHT22;2919;48.630;9.000;2022-10-26T15:53:49;17.30;99.90
5786;DHT22;2919;48.630;9.000;2022-10-26T15:56:17;17.20;99.90
5786;DHT22;2919;48.630;9.000;2022-10-26T15:58:43;17.00;99.90
5786;DHT22;2919;48.630;9.000;2022-10-26T16:01:15;16.80;99.90
5786;DHT22;2919;48.630;9.000;2022-10-26T16:03:41;16.60;99.90
5786;DHT22;2919;48.630;9.000;2022-10-26T16:06:16;16.50;99.90
5786;DHT22;2919;48.630;9.000;2022-10-26T16:08:47;16.30;99.90
5786;DHT22;2919;48.630;9.000;2022-10-26T16:11:13;16.20;99.90
5786;DHT22;2919;48.630;9.000;2022-10-26T16:13:39;16.10;99.90
5786;DHT22;2919;48.630;9.000;2022-10-26T16:16:12;16.00;99.90
5786;DHT22;2919;48.630;9.000;2022-10-26T16:18:38;15.90;99.90
5786;DHT22;2919;48.630;9.000;2022-10-26T16:21:04;15.80;99.90
5786;DHT22;2919;48.630;9.000;2022-10-26T16:23:30;15.80;99.90
5786;DHT22;2919;48.630;9.000;2022-10-26T16:25:55;15.70;99.90
5786;DHT22;2919;48.630;9.000;2022-10-26T16:28:21;15.50;99.90
5786;DHT22;2919;48.630;9.000;2022-10-26T16:30:47;15.50;99.90
5786;DHT22;2919;48.630;9.000;2022-10-26T16:33:12;15.30;99.90
5786;DHT22;2919;48.630;9.000;2022-10-26T16:35:38;15.20;99.90
5786;DHT22;2919;48.630;9.000;2022-10-26T16:38:03;15.10;99.90
5786;DHT22;2919;48.630;9.000;2022-10-26T16:40:29;15.00;99.90
5786;DHT22;2919;48.630;9.000;2022-10-26T16:42:55;14.90;99.90
5786;DHT22;2919;48.630;9.000;2022-10-26T16:45:20;14.80;99.90
5786;DHT22;2919;48.630;9.000;2022-10-26T16:47:46;14.70;99.90
5786;DHT22;2919;48.630;9.000;2022-10-26T16:50:12;14.60;99.90
5786;DHT22;2919;48.630;9.000;2022-10-26T16:52:39;14.50;99.90
5786;DHT22;2919;48.630;9.000;2022-10-26T16:55:06;14.50;99.90
5786;DHT22;2919;48.630;9.000;2022-10-26T16:57:33;14.40;99.90
5786;DHT22;2919;48.630;9.000;2022-10-26T16:59:59;14.30;99.90
5786;DHT22;2919;48.630;9.000;2022-10-26T17:02:24;14.30;99.90
5786;DHT22;2919;48.630;9.000;2022-10-26T17:04:50;14.20;99.90
5786;DHT22;2919;48.630;9.000;2022-10-26T17:07:16;14.20;99.90
5786;DHT22;2919;48.630;9.000;2022-10-26T17:09:41;14.20;99.90
5786;DHT22;2919;48.630;9.000;2022-10-26T17:12:07;14.20;99.90
5786;DHT22;2919;48.630;9.000;2022-10-26T17:14:35;14.10;99.90
5786;DHT22;2919;48.630;9.000;2022-10-26T17:17:01;14.10;99.90
5786;DHT22;2919;48.630;9.000;2022-10-26T17:19:27;14.00;99.90
5786;DHT22;2919;48.630;9.000;2022-10-26T17:21:52;13.90;99.90
5786;DHT22;2919;48.630;9.000;2022-10-26T17:24:18;13.90;99.90
5786;DHT22;2919;48.630;9.000;2022-10-26T17:26:44;13.80;99.90
5786;DHT22;2919;48.630;9.000;2022-10-26T17:29:11;13.70;99.90
5786;DHT22;2919;48.630;9.000;2022-10-26T17:31:37;13.70;99.90
5786;DHT22;2919;48.630;9.000;2022-10-26T17:34:03;13.60;99.90
5786;DHT22;2919;48.630;9.000;2022-10-26T17:36:29;13.60;99.90
5786;DHT22;2919;48.630;9.000;2022-10-26T17:38:56;13.50;99.90
5786;DHT22;2919;48.630;9.000;2022-10-26T17:41:22;13.50;99.90
5786;DHT22;2919;48.630;9.000;2022-10-26T17:43:48;13.40;99.90
5786;DHT22;2919;48.630;9.000;2022-10-26T17:46:19;13.40;99.90
5786;DHT22;2919;48.630;9.000;2022-10-26T17:48:45;13.30;99.90
5786;DHT22;2919;48.630;9.000;2022-10-26T17:51:16;13.30;99.90
5786;DHT22;2919;48.630;9.000;2022-10-26T17:53:42;13.30;99.90
5786;DHT22;2919;48.630;9.000;2022-10-26T17:56:21;13.20;99.90
5786;DHT22;2919;48.630;9.000;2022-10-26T17:58:58;13.20;99.90
5786;DHT22;2919;48.630;9.000;2022-10-26T18:01:25;13.10;99.90
5786;DHT22;2919;48.630;9.000;2022-10-26T18:03:51;13.00;99.90
5786;DHT22;2919;48.630;9.000;2022-10-26T18:06:17;13.10;99.90
5786;DHT22;2919;48.630;9.000;2022-10-26T18:08:43;13.00;99.90
5786;DHT22;2919;48.630;9.000;2022-10-26T18:11:17;13.00;99.90
5786;DHT22;2919;48.630;9.000;2022-10-26T18:13:44;13.00;99.90
5786;DHT22;2919;48.630;9.000;2022-10-26T18:16:15;12.90;99.90
5786;DHT22;2919;48.630;9.000;2022-10-26T18:18:43;12.80;99.90
5786;DHT22;2919;48.630;9.000;2022-10-26T18:21:15;12.80;99.90
5786;DHT22;2919;48.630;9.000;2022-10-26T18:23:41;12.80;99.90
5786;DHT22;2919;48.630;9.000;2022-10-26T18:26:12;12.80;99.90
5786;DHT22;2919;48.630;9.000;2022-10-26T18:28:38;12.70;99.90
5786;DHT22;2919;48.630;9.000;2022-10-26T18:31:06;12.70;99.90
5786;DHT22;2919;48.630;9.000;2022-10-26T18:33:32;12.70;99.90
5786;DHT22;2919;48.630;9.000;2022-10-26T18:36:10;12.70;99.90
5786;DHT22;2919;48.630;9.000;2022-10-26T18:38:37;12.60;99.90
5786;DHT22;2919;48.630;9.000;2022-10-26T18:41:04;12.60;99.90
5786;DHT22;2919;48.630;9.000;2022-10-26T18:43:30;12.50;99.90
5786;DHT22;2919;48.630;9.000;2022-10-26T18:46:13;12.50;99.90
5786;DHT22;2919;48.630;9.000;2022-10-26T18:48:40;12.50;99.90
5786;DHT22;2919;48.630;9.000;2022-10-26T18:51:09;12.40;99.90